Time;durP1;ratioP1;P1;durP2;ratioP2;P2;SDS_P1;SDS_P2;PMS_P1;PMS_P2;Temp;Humidity;BMP_temperature;BMP_pressure;BME280_temperature;BME280_humidity;BME280_pressure;Samples;Min_cycle;Max_cycle;Signal;HPM_P1;HPM_P2
2024/02/13 00:00:08;;;;;;;0.50;0.50;;;8.70;99.90;;;;;;10409772;28;20221;-80
2024/02/13 00:05:13;;;;;;;0.50;0.50;;;8.70;99.90;;;;;;10409490;28;20213;-81
2024/02/13 00:10:17;;;;;;;0.50;0.50;;;8.70;99.90;;;;;;10404945;28;20221;-80
2024/02/13 00:15:20;;;;;;;0.60;0.60;;;8.60;99.90;;;;;;10417903;28;20228;-81
2024/02/13 00:20:23;;;;;;;0.50;0.50;;;8.50;99.90;;;;;;10428339;28;20255;-80
2024/02/13 00:25:28;;;;;;;0.60;0.60;;;8.20;99.90;;;;;;10430310;28;20221;-80
2024/02/13 00:30:30;;;;;;;0.50;0.50;;;8.20;99.90;;;;;;10429590;28;20624;-81
2024/02/13 00:35:33;;;;;;;0.50;0.50;;;8.20;99.90;;;;;;10428600;28;20283;-79
2024/02/13 00:40:36;;;;;;;0.50;0.50;;;8.10;99.90;;;;;;10429623;28;20620;-81
2024/02/13 00:45:38;;;;;;;0.50;0.50;;;8.20;99.90;;;;;;10427607;28;20268;-81
2024/02/13 00:50:44;;;;;;;0.50;0.50;;;8.30;99.90;;;;;;10426921;28;20199;-80
2024/02/13 00:55:49;;;;;;;0.50;0.50;;;8.40;99.90;;;;;;10426075;28;20366;-80
2024/02/13 01:00:53;;;;;;;0.40;0.40;;;8.50;99.90;;;;;;10434938;28;20252;-80
2024/02/13 01:05:56;;;;;;;0.40;0.40;;;8.60;99.90;;;;;;10433376;28;20194;-80
2024/02/13 01:10:59;;;;;;;0.40;0.40;;;8.70;99.90;;;;;;10427797;28;20214;-80
2024/02/13 01:16:03;;;;;;;0.70;0.70;;;8.70;99.90;;;;;;10434899;28;20594;-81
2024/02/13 01:21:11;;;;;;;0.60;0.60;;;8.80;99.90;;;;;;10433457;28;20275;-79
2024/02/13 01:26:17;;;;;;;0.50;0.50;;;8.80;99.90;;;;;;10431879;28;20243;-79
2024/02/13 01:31:19;;;;;;;0.43;0.43;;;8.90;99.90;;;;;;10433184;28;20217;-80
2024/02/13 01:36:21;;;;;;;0.40;0.40;;;8.90;99.90;;;;;;10433441;28;20217;-80
2024/02/13 01:41:25;;;;;;;0.50;0.50;;;8.90;99.90;;;;;;10436409;28;20240;-81
2024/02/13 01:46:30;;;;;;;0.40;0.40;;;9.00;99.90;;;;;;10438319;28;20202;-82
2024/02/13 01:51:35;;;;;;;0.50;0.50;;;9.00;99.90;;;;;;10434009;28;20217;-81
2024/02/13 01:56:41;;;;;;;0.50;0.50;;;9.10;99.90;;;;;;10437124;28;20296;-79
2024/02/13 02:01:44;;;;;;;0.50;0.50;;;9.10;99.90;;;;;;10428110;28;20640;-80
2024/02/13 02:06:49;;;;;;;0.50;0.50;;;9.10;99.90;;;;;;10428092;28;20190;-81
2024/02/13 02:11:53;;;;;;;0.50;0.50;;;9.10;99.90;;;;;;10417841;28;20214;-80
2024/02/13 02:17:08;;;;;;;0.40;0.40;;;9.10;99.90;;;;;;10428558;28;20221;-79
2024/02/13 02:22:10;;;;;;;0.60;0.60;;;9.20;99.90;;;;;;10429111;28;20221;-81
2024/02/13 02:27:14;;;;;;;18.90;17.23;;;9.10;99.90;;;;;;10426999;28;20785;-81
2024/02/13 02:32:16;;;;;;;0.50;0.50;;;9.10;99.90;;;;;;10428558;28;20273;-81
2024/02/13 02:37:19;;;;;;;0.50;0.50;;;9.00;99.90;;;;;;10429745;28;20221;-80
2024/02/13 02:42:23;;;;;;;0.50;0.50;;;8.90;99.90;;;;;;10434627;28;20221;-80
2024/02/13 02:47:25;;;;;;;0.40;0.40;;;8.80;99.90;;;;;;10439976;28;20193;-80
2024/02/13 02:52:28;;;;;;;0.50;0.50;;;8.70;99.90;;;;;;10437466;28;20627;-81
2024/02/13 02:57:31;;;;;;;0.40;0.40;;;8.60;99.90;;;;;;10443935;28;20221;-80
2024/02/13 03:02:35;;;;;;;0.50;0.50;;;8.50;99.90;;;;;;10441460;28;20216;-81
2024/02/13 03:07:37;;;;;;;0.50;0.50;;;8.40;99.90;;;;;;10439773;28;20190;-80
2024/02/13 03:12:41;;;;;;;0.53;0.53;;;8.30;99.90;;;;;;10436711;28;20221;-81
2024/02/13 03:17:48;;;;;;;0.50;0.50;;;8.30;99.90;;;;;;10436308;28;20220;-81
2024/02/13 03:22:50;;;;;;;0.50;0.50;;;8.20;99.90;;;;;;10430368;28;20220;-80
2024/02/13 03:27:53;;;;;;;0.50;0.50;;;8.10;99.90;;;;;;10437236;28;20197;-79
2024/02/13 03:32:56;;;;;;;0.50;0.50;;;8.00;99.90;;;;;;10434150;28;20688;-81
2024/02/13 03:37:58;;;;;;;0.50;0.50;;;8.00;99.90;;;;;;10435291;28;20221;-81
2024/02/13 03:43:02;;;;;;;0.60;0.60;;;8.00;99.90;;;;;;10435159;28;20237;-80
2024/02/13 03:48:05;;;;;;;0.60;0.60;;;7.90;99.90;;;;;;10436309;28;20217;-81
2024/02/13 03:53:08;;;;;;;0.60;0.60;;;7.90;99.90;;;;;;10436800;28;20233;-82
2024/02/13 03:58:12;;;;;;;0.50;0.50;;;7.80;99.90;;;;;;10436414;28;20233;-80
2024/02/13 04:03:14;;;;;;;0.50;0.50;;;7.70;99.90;;;;;;10437222;28;20221;-81
2024/02/13 04:08:17;;;;;;;0.70;0.70;;;7.70;99.90;;;;;;10433033;28;21623;-81
2024/02/13 04:13:21;;;;;;;0.90;0.90;;;7.70;99.90;;;;;;10434453;28;20703;-82
2024/02/13 04:18:23;;;;;;;0.70;0.70;;;7.80;99.90;;;;;;10435909;28;20296;-80
2024/02/13 04:23:27;;;;;;;0.90;0.90;;;7.80;99.90;;;;;;10436687;28;20275;-81
2024/02/13 04:28:30;;;;;;;0.70;0.70;;;7.90;99.90;;;;;;10435032;28;20201;-78
2024/02/13 04:33:33;;;;;;;0.90;0.90;;;7.90;99.90;;;;;;10435689;28;20214;-81
2024/02/13 04:38:36;;;;;;;1.00;1.00;;;7.90;99.90;;;;;;10440833;28;20271;-81
2024/02/13 04:43:43;;;;;;;0.90;0.90;;;8.00;99.90;;;;;;10439922;28;20225;-81
2024/02/13 04:48:46;;;;;;;0.80;0.80;;;8.00;99.90;;;;;;10450233;28;20193;-80
2024/02/13 04:53:48;;;;;;;0.90;0.90;;;8.00;99.90;;;;;;10450744;28;20222;-80
2024/02/13 04:58:55;;;;;;;0.80;0.80;;;8.10;99.90;;;;;;10456000;28;20217;-79
2024/02/13 05:09:17;;;;;;;0.60;0.60;;;8.00;99.90;;;;;;10426764;28;20658;-79
2024/02/13 05:14:21;;;;;;;0.70;0.70;;;8.10;99.90;;;;;;10433043;28;20756;-78
2024/02/13 05:19:23;;;;;;;0.50;0.50;;;8.20;99.90;;;;;;10433974;28;20229;-79
2024/02/13 05:24:26;;;;;;;0.60;0.60;;;8.30;99.90;;;;;;10432941;28;20268;-79
2024/02/13 05:29:30;;;;;;;0.20;0.20;;;8.30;99.90;;;;;;10431219;28;20258;-79
2024/02/13 05:34:32;;;;;;;0.77;0.77;;;8.40;99.90;;;;;;10428995;28;20259;-80
2024/02/13 05:39:34;;;;;;;0.80;0.80;;;8.40;99.90;;;;;;10433552;28;20785;-80
2024/02/13 05:44:38;;;;;;;0.70;0.70;;;8.30;99.90;;;;;;10415615;28;20706;-81
2024/02/13 05:49:44;;;;;;;0.70;0.70;;;8.20;99.90;;;;;;10432705;28;20247;-79
2024/02/13 05:54:46;;;;;;;0.60;0.60;;;8.10;99.90;;;;;;10428342;28;20214;-81
2024/02/13 05:59:50;;;;;;;0.50;0.50;;;8.10;99.90;;;;;;10419571;28;20221;-79
2024/02/13 06:04:55;;;;;;;0.77;0.77;;;8.00;99.90;;;;;;10429819;28;20232;-78
2024/02/13 06:09:57;;;;;;;0.80;0.80;;;8.00;99.90;;;;;;10423298;28;20618;-80
2024/02/13 06:15:01;;;;;;;0.70;0.70;;;8.00;99.90;;;;;;10433504;28;20263;-78
2024/02/13 06:20:05;;;;;;;0.40;0.40;;;8.00;99.90;;;;;;10439369;28;20249;-80
2024/02/13 06:25:10;;;;;;;0.80;0.80;;;8.10;99.90;;;;;;10431364;28;20256;-80
2024/02/13 06:30:15;;;;;;;0.60;0.60;;;8.20;99.90;;;;;;10417514;28;20198;-77
2024/02/13 06:35:18;;;;;;;0.70;0.70;;;8.30;99.90;;;;;;10410865;28;20268;-78
2024/02/13 06:40:20;;;;;;;0.67;0.67;;;8.40;99.90;;;;;;10416846;28;20234;-77
2024/02/13 06:45:25;;;;;;;0.73;0.73;;;8.50;99.90;;;;;;10427888;28;20229;-76
2024/02/13 06:50:28;;;;;;;0.80;0.80;;;8.50;99.90;;;;;;10426706;28;20194;-80
2024/02/13 06:55:31;;;;;;;0.80;0.80;;;8.50;99.90;;;;;;10418785;28;20221;-79
2024/02/13 07:00:35;;;;;;;0.80;0.80;;;8.50;99.90;;;;;;10409713;28;20226;-82
2024/02/13 07:05:37;;;;;;;0.70;0.70;;;8.50;99.90;;;;;;10413712;28;20709;-81
2024/02/13 07:10:41;;;;;;;0.60;0.60;;;8.50;99.90;;;;;;10414853;28;20194;-79
2024/02/13 07:15:45;;;;;;;0.40;0.40;;;8.50;99.90;;;;;;10422554;28;20213;-80
2024/02/13 07:20:47;;;;;;;0.50;0.50;;;8.60;99.90;;;;;;10414724;28;20222;-78
2024/02/13 07:25:50;;;;;;;0.50;0.50;;;8.60;99.90;;;;;;10414232;28;20554;-81
2024/02/13 07:30:53;;;;;;;0.60;0.60;;;8.70;99.90;;;;;;10414405;28;20591;-82
2024/02/13 07:35:56;;;;;;;0.60;0.60;;;8.80;99.90;;;;;;10416549;28;20224;-83
2024/02/13 07:40:58;;;;;;;0.40;0.40;;;8.90;99.90;;;;;;10418885;28;20220;-80
2024/02/13 07:46:03;;;;;;;0.50;0.50;;;9.00;99.90;;;;;;10453150;22;20240;-75
2024/02/13 07:51:05;;;;;;;0.50;0.50;;;9.10;99.90;;;;;;10421627;28;20243;-74
2024/02/13 07:56:08;;;;;;;0.50;0.50;;;9.20;99.90;;;;;;10419858;28;20218;-74
2024/02/13 08:01:11;;;;;;;0.50;0.50;;;9.30;99.90;;;;;;10422556;28;20283;-75
2024/02/13 08:06:14;;;;;;;0.60;0.60;;;9.30;99.90;;;;;;10428844;28;20220;-73
2024/02/13 08:11:16;;;;;;;0.50;0.50;;;9.30;99.90;;;;;;10424205;28;20209;-73
2024/02/13 08:16:22;;;;;;;0.50;0.50;;;9.20;99.90;;;;;;10428032;28;20212;-76
2024/02/13 08:21:24;;;;;;;0.53;0.53;;;9.10;99.90;;;;;;10437265;28;20625;-75
2024/02/13 08:26:27;;;;;;;0.20;0.20;;;9.00;99.90;;;;;;10437827;28;20197;-75
2024/02/13 08:31:30;;;;;;;0.40;0.40;;;8.90;99.90;;;;;;10438899;28;20208;-75
2024/02/13 08:36:33;;;;;;;0.30;0.30;;;8.80;99.90;;;;;;10421518;28;20625;-75
2024/02/13 08:41:36;;;;;;;0.30;0.30;;;8.90;99.90;;;;;;10439698;28;20726;-72
2024/02/13 08:46:40;;;;;;;0.30;0.30;;;8.90;99.90;;;;;;10433732;28;20236;-74
2024/02/13 08:51:42;;;;;;;0.30;0.30;;;8.90;99.90;;;;;;10442494;28;20578;-75
2024/02/13 08:56:44;;;;;;;0.37;0.37;;;9.00;99.90;;;;;;10439414;28;20217;-73
2024/02/13 09:01:48;;;;;;;0.30;0.30;;;9.10;99.90;;;;;;10439622;28;20734;-75
2024/02/13 09:06:50;;;;;;;0.40;0.40;;;9.10;99.90;;;;;;10440813;28;20204;-74
2024/02/13 09:11:53;;;;;;;0.40;0.40;;;9.30;99.90;;;;;;10437761;28;20295;-75
2024/02/13 09:16:57;;;;;;;0.40;0.40;;;9.50;99.90;;;;;;10436409;28;20259;-75
2024/02/13 09:21:59;;;;;;;0.40;0.40;;;9.70;99.90;;;;;;10442023;28;20221;-75
2024/02/13 09:27:03;;;;;;;0.40;0.40;;;9.90;99.90;;;;;;10442369;28;20637;-76
2024/02/13 09:32:08;;;;;;;0.40;0.40;;;10.00;99.90;;;;;;10443117;28;20224;-75
2024/02/13 09:37:12;;;;;;;0.30;0.30;;;10.20;99.60;;;;;;10443581;28;20235;-75
2024/02/13 09:42:16;;;;;;;0.30;0.30;;;10.20;99.50;;;;;;10437938;28;20257;-75
2024/02/13 09:47:21;;;;;;;0.40;0.40;;;10.30;99.40;;;;;;10442654;28;20236;-74
2024/02/13 09:52:25;;;;;;;0.30;0.30;;;10.40;99.10;;;;;;10444943;28;20233;-75
2024/02/13 09:57:28;;;;;;;0.40;0.40;;;10.50;98.70;;;;;;10437013;28;20204;-74
2024/02/13 10:02:32;;;;;;;0.30;0.30;;;10.50;98.10;;;;;;10437595;28;20232;-75
2024/02/13 10:07:37;;;;;;;0.40;0.40;;;10.60;98.60;;;;;;10437923;28;20193;-74
2024/02/13 10:12:49;;;;;;;0.40;0.40;;;10.60;99.00;;;;;;10438465;28;20661;-75
2024/02/13 10:17:55;;;;;;;0.37;0.37;;;10.80;98.20;;;;;;10439060;28;20221;-75
2024/02/13 10:23:00;;;;;;;0.40;0.40;;;10.90;98.40;;;;;;10421902;28;20695;-74
2024/02/13 10:28:05;;;;;;;0.30;0.30;;;11.00;98.30;;;;;;10431253;28;20194;-75
2024/02/13 10:33:09;;;;;;;0.30;0.30;;;11.00;98.20;;;;;;10440676;28;20606;-75
2024/02/13 10:38:12;;;;;;;0.40;0.40;;;11.00;97.60;;;;;;10441034;28;20228;-73
2024/02/13 10:43:16;;;;;;;0.20;0.20;;;10.90;96.70;;;;;;10415583;28;20232;-74
2024/02/13 10:48:32;;;;;;;0.30;0.30;;;10.90;96.90;;;;;;10441858;28;20209;-75
2024/02/13 10:53:35;;;;;;;0.30;0.30;;;10.90;96.70;;;;;;10392077;28;20274;-75
2024/02/13 10:58:39;;;;;;;0.40;0.40;;;10.70;96.50;;;;;;10434706;28;20216;-75
2024/02/13 11:03:43;;;;;;;0.40;0.40;;;10.70;96.80;;;;;;10435164;28;20217;-75
2024/02/13 11:08:46;;;;;;;0.30;0.30;;;10.60;96.40;;;;;;10435340;28;20205;-76
2024/02/13 11:13:50;;;;;;;0.40;0.40;;;10.70;95.40;;;;;;10444469;28;20263;-75
2024/02/13 11:18:53;;;;;;;0.40;0.40;;;10.70;96.10;;;;;;10436356;28;20323;-74
2024/02/13 11:23:59;;;;;;;0.50;0.50;;;10.70;96.00;;;;;;10436146;28;20278;-75
2024/02/13 11:29:10;;;;;;;0.50;0.50;;;10.70;94.70;;;;;;10424933;28;20247;-74
2024/02/13 11:34:14;;;;;;;0.40;0.40;;;10.70;95.10;;;;;;10436895;28;20220;-76
2024/02/13 11:39:17;;;;;;;0.57;0.57;;;10.70;95.40;;;;;;10436413;28;20256;-74
2024/02/13 11:44:21;;;;;;;0.40;0.40;;;10.80;94.00;;;;;;10444848;28;20306;-76
2024/02/13 11:49:26;;;;;;;0.50;0.50;;;10.80;93.70;;;;;;10419277;28;20197;-74
2024/02/13 11:54:29;;;;;;;0.40;0.40;;;10.80;94.10;;;;;;10437081;28;20252;-73
2024/02/13 11:59:31;;;;;;;0.50;0.50;;;10.70;94.50;;;;;;10429423;28;20221;-75
2024/02/13 12:04:37;;;;;;;0.40;0.40;;;10.60;93.60;;;;;;10430485;28;20233;-76
2024/02/13 12:09:41;;;;;;;0.40;0.40;;;10.60;94.70;;;;;;10430931;28;20205;-75
2024/02/13 12:14:43;;;;;;;0.33;0.33;;;10.60;94.50;;;;;;10428624;28;20225;-76
2024/02/13 12:19:48;;;;;;;0.30;0.30;;;10.60;93.90;;;;;;10420480;28;20510;-76
2024/02/13 12:24:50;;;;;;;0.40;0.40;;;10.60;93.60;;;;;;10433845;28;20213;-75
2024/02/13 12:29:53;;;;;;;0.40;0.40;;;10.60;93.20;;;;;;10434902;28;20247;-75
2024/02/13 12:35:10;;;;;;;0.33;0.33;;;10.70;92.00;;;;;;10435959;28;20220;-74
2024/02/13 12:40:14;;;;;;;0.40;0.40;;;10.70;92.50;;;;;;10436905;28;20225;-74
2024/02/13 12:45:19;;;;;;;0.40;0.40;;;10.70;92.10;;;;;;10431081;28;20286;-75
2024/02/13 12:50:24;;;;;;;0.40;0.40;;;10.80;91.90;;;;;;10431543;28;20194;-75
2024/02/13 12:55:26;;;;;;;0.40;0.40;;;10.80;91.70;;;;;;10437593;28;20643;-73
2024/02/13 13:00:34;;;;;;;0.40;0.40;;;10.90;91.20;;;;;;10431007;28;20217;-75
2024/02/13 13:05:41;;;;;;;0.30;0.30;;;11.00;91.50;;;;;;10432038;28;20225;-76
2024/02/13 13:10:44;;;;;;;0.40;0.40;;;11.20;92.00;;;;;;10432676;28;20612;-76
2024/02/13 13:15:47;;;;;;;0.30;0.30;;;11.40;92.40;;;;;;10432859;28;20716;-76
2024/02/13 13:20:51;;;;;;;0.30;0.30;;;11.60;92.30;;;;;;10433699;28;20233;-76
2024/02/13 13:25:54;;;;;;;0.43;0.43;;;11.70;92.40;;;;;;10434934;28;20271;-75
2024/02/13 13:31:00;;;;;;;0.40;0.40;;;11.90;90.80;;;;;;10436209;28;20720;-75
2024/02/13 13:36:05;;;;;;;0.43;0.43;;;12.00;91.00;;;;;;10436834;28;20247;-76
2024/02/13 13:41:07;;;;;;;0.50;0.50;;;12.10;91.10;;;;;;10437618;28;20299;-74
2024/02/13 13:46:10;;;;;;;0.30;0.30;;;12.20;90.10;;;;;;10450703;22;20283;-77
2024/02/13 13:51:13;;;;;;;0.30;0.30;;;12.20;90.50;;;;;;10431638;28;20629;-77
2024/02/13 13:56:16;;;;;;;0.40;0.40;;;12.30;90.40;;;;;;10430510;28;20232;-77
2024/02/13 14:01:18;;;;;;;0.40;0.40;;;12.30;89.50;;;;;;10438611;28;20244;-77
2024/02/13 14:06:22;;;;;;;0.30;0.30;;;12.30;88.30;;;;;;10436153;28;20222;-77
2024/02/13 14:11:24;;;;;;;0.40;0.40;;;12.30;87.80;;;;;;10451297;28;20629;-78
2024/02/13 14:16:26;;;;;;;0.40;0.40;;;12.40;86.60;;;;;;10439384;28;20222;-77
2024/02/13 14:21:30;;;;;;;0.40;0.40;;;12.40;87.40;;;;;;10436579;28;20291;-77
2024/02/13 14:26:34;;;;;;;0.50;0.50;;;12.40;84.80;;;;;;10435156;28;20226;-77
2024/02/13 14:31:36;;;;;;;0.30;0.30;;;12.30;84.90;;;;;;10436024;28;20714;-77
2024/02/13 14:36:40;;;;;;;0.60;0.60;;;12.30;88.10;;;;;;10452478;28;20209;-77
2024/02/13 14:41:44;;;;;;;0.50;0.50;;;12.20;87.40;;;;;;10455263;28;20709;-77
2024/02/13 14:46:46;;;;;;;0.10;0.10;;;12.20;87.50;;;;;;10434269;28;20251;-77
2024/02/13 14:51:50;;;;;;;0.40;0.40;;;12.10;87.30;;;;;;10433755;28;20197;-77
2024/02/13 14:56:53;;;;;;;0.50;0.50;;;12.20;89.90;;;;;;10415586;28;20210;-77
2024/02/13 15:01:57;;;;;;;0.50;0.50;;;12.10;90.10;;;;;;10442788;28;20225;-77
2024/02/13 15:07:00;;;;;;;0.47;0.47;;;12.10;90.40;;;;;;10422476;28;20194;-77
2024/02/13 15:12:04;;;;;;;0.50;0.50;;;12.00;90.60;;;;;;10454771;28;20218;-77
2024/02/13 15:17:08;;;;;;;0.40;0.40;;;11.90;90.50;;;;;;10438856;28;20605;-77
2024/02/13 15:22:12;;;;;;;0.40;0.40;;;11.80;91.30;;;;;;10444051;28;20726;-77
2024/02/13 15:27:15;;;;;;;0.50;0.50;;;11.70;90.90;;;;;;10427712;28;20204;-77
2024/02/13 15:32:17;;;;;;;0.60;0.60;;;11.60;90.90;;;;;;10419394;28;20699;-77
2024/02/13 15:48:00;;;;;;;0.50;0.50;;;11.20;90.50;;;;;;10431074;28;20216;-77
2024/02/13 15:53:05;;;;;;;0.60;0.60;;;11.10;91.00;;;;;;10400755;28;20217;-77
2024/02/13 15:58:07;;;;;;;0.60;0.60;;;11.10;90.40;;;;;;10434130;28;20558;-77
2024/02/13 16:03:10;;;;;;;0.60;0.60;;;11.00;90.70;;;;;;10407629;28;20278;-77
2024/02/13 16:08:13;;;;;;;0.60;0.60;;;11.00;91.30;;;;;;10434092;28;20197;-77
2024/02/13 16:13:17;;;;;;;0.40;0.40;;;10.90;91.20;;;;;;10437044;28;20233;-77
2024/02/13 16:18:22;;;;;;;0.50;0.50;;;10.80;91.80;;;;;;10440969;28;20193;-77
2024/02/13 16:23:27;;;;;;;0.30;0.30;;;10.80;92.60;;;;;;10440534;28;20217;-77
2024/02/13 16:28:35;;;;;;;0.40;0.40;;;10.70;93.50;;;;;;10448997;28;20674;-77
2024/02/13 16:33:37;;;;;;;0.40;0.40;;;10.70;93.40;;;;;;10459752;28;20209;-77
2024/02/13 16:38:41;;;;;;;0.50;0.50;;;10.60;93.20;;;;;;10446857;28;20197;-77
2024/02/13 16:43:44;;;;;;;0.47;0.47;;;10.60;93.70;;;;;;10428779;28;20704;-77
2024/02/13 16:48:47;;;;;;;0.40;0.40;;;10.40;92.50;;;;;;10457824;28;20624;-77
2024/02/13 16:53:51;;;;;;;0.43;0.43;;;10.40;92.30;;;;;;10429374;28;20216;-78
2024/02/13 16:58:53;;;;;;;0.60;0.60;;;10.20;92.40;;;;;;10444464;28;20209;-77
2024/02/13 17:03:55;;;;;;;0.33;0.33;;;10.10;92.80;;;;;;10437369;28;20225;-78
2024/02/13 17:09:00;;;;;;;0.50;0.50;;;10.00;93.00;;;;;;10469163;28;20574;-78
2024/02/13 17:14:04;;;;;;;0.57;0.57;;;9.90;93.50;;;;;;10461082;28;20225;-78
2024/02/13 17:19:13;;;;;;;0.60;0.60;;;9.80;93.60;;;;;;10468892;28;20504;-78
2024/02/13 17:24:16;;;;;;;0.30;0.30;;;9.70;93.50;;;;;;10451724;28;20233;-78
2024/02/13 17:29:20;;;;;;;0.50;0.50;;;9.50;93.90;;;;;;10469553;28;20205;-78
2024/02/13 17:34:24;;;;;;;0.50;0.50;;;9.40;94.20;;;;;;10459723;28;20526;-77
2024/02/13 17:39:27;;;;;;;0.50;0.50;;;9.30;94.20;;;;;;10474266;28;20205;-78
2024/02/13 17:44:30;;;;;;;0.50;0.50;;;9.20;94.20;;;;;;10441830;28;20232;-78
2024/02/13 17:49:32;;;;;;;0.50;0.50;;;9.20;94.30;;;;;;10456066;28;20690;-78
2024/02/13 17:54:36;;;;;;;0.60;0.60;;;9.10;94.50;;;;;;10445160;28;20228;-78
2024/02/13 17:59:38;;;;;;;0.60;0.60;;;9.00;94.90;;;;;;10447436;28;20193;-78
2024/02/13 18:04:41;;;;;;;0.50;0.50;;;8.90;94.90;;;;;;10437274;28;20225;-77
2024/02/13 18:09:44;;;;;;;0.50;0.50;;;8.80;95.10;;;;;;10453330;28;20198;-78
2024/02/13 18:14:47;;;;;;;0.60;0.60;;;8.70;95.30;;;;;;10449446;28;20279;-79
2024/02/13 18:19:49;;;;;;;0.60;0.60;;;8.70;95.60;;;;;;10446391;28;20573;-77
2024/02/13 18:24:55;;;;;;;0.50;0.50;;;8.60;95.70;;;;;;10451927;28;20217;-78
2024/02/13 18:29:58;;;;;;;0.20;0.20;;;8.60;95.70;;;;;;10448212;28;20232;-78
2024/02/13 18:35:00;;;;;;;0.27;0.27;;;8.60;95.90;;;;;;10456545;28;20699;-78
2024/02/13 18:40:06;;;;;;;0.70;0.70;;;8.50;96.10;;;;;;10453971;28;20764;-78
2024/02/13 18:45:09;;;;;;;0.27;0.27;;;8.40;96.30;;;;;;10460590;28;20394;-78
2024/02/13 18:50:12;;;;;;;0.50;0.50;;;8.40;96.50;;;;;;10423362;28;20202;-78
2024/02/13 18:55:15;;;;;;;0.67;0.67;;;8.40;96.50;;;;;;10427336;28;20572;-76
2024/02/13 19:00:18;;;;;;;0.50;0.50;;;8.30;96.60;;;;;;10443801;28;20224;-76
2024/02/13 19:05:20;;;;;;;0.57;0.57;;;8.30;96.80;;;;;;10424324;28;20419;-76
2024/02/13 19:10:24;;;;;;;0.60;0.60;;;8.20;96.70;;;;;;10438997;28;20319;-76
2024/02/13 19:15:27;;;;;;;0.50;0.50;;;8.20;96.70;;;;;;10424264;28;20233;-76
2024/02/13 19:20:29;;;;;;;0.50;0.50;;;8.10;96.80;;;;;;10413646;28;20253;-76
2024/02/13 19:25:33;;;;;;;0.47;0.47;;;8.00;96.80;;;;;;10423618;28;20224;-76
2024/02/13 19:30:36;;;;;;;0.40;0.40;;;8.00;96.90;;;;;;10426969;28;20225;-77
2024/02/13 19:35:38;;;;;;;0.50;0.50;;;7.90;97.10;;;;;;10441389;28;20218;-76
2024/02/13 19:40:43;;;;;;;0.30;0.30;;;7.90;97.30;;;;;;10405330;28;20225;-76
2024/02/13 19:45:45;;;;;;;0.50;0.50;;;7.80;97.20;;;;;;10421559;22;20699;-76
2024/02/13 19:50:48;;;;;;;0.60;0.60;;;7.80;97.30;;;;;;10409411;28;20201;-76
2024/02/13 19:55:52;;;;;;;0.60;0.60;;;7.80;97.30;;;;;;10427831;28;20224;-75
2024/02/13 20:00:54;;;;;;;0.40;0.40;;;7.70;97.30;;;;;;10444829;28;20601;-75
2024/02/13 20:05:58;;;;;;;0.40;0.40;;;7.70;97.20;;;;;;10447324;28;20220;-75
2024/02/13 20:11:02;;;;;;;0.50;0.50;;;7.70;97.40;;;;;;10446514;28;20196;-78
2024/02/13 20:16:05;;;;;;;0.50;0.50;;;7.70;97.20;;;;;;10448054;28;20224;-74
2024/02/13 20:21:07;;;;;;;0.60;0.60;;;7.70;97.20;;;;;;10446953;28;20236;-76
2024/02/13 20:26:11;;;;;;;0.50;0.50;;;7.60;97.10;;;;;;10448435;28;20233;-74
2024/02/13 20:31:14;;;;;;;0.50;0.50;;;7.60;97.20;;;;;;10443638;28;20259;-75
2024/02/13 20:36:16;;;;;;;0.50;0.50;;;7.50;97.10;;;;;;10439212;28;20225;-75
2024/02/13 20:41:21;;;;;;;0.60;0.60;;;7.50;97.30;;;;;;10438425;28;20232;-74
2024/02/13 20:46:23;;;;;;;0.50;0.50;;;7.40;97.30;;;;;;10442986;28;20752;-75
2024/02/13 20:51:26;;;;;;;0.60;0.60;;;7.40;97.50;;;;;;10443647;28;20259;-75
2024/02/13 20:56:30;;;;;;;0.50;0.50;;;7.30;97.50;;;;;;10442116;28;20224;-74
2024/02/13 21:01:38;;;;;;;0.60;0.60;;;7.30;97.60;;;;;;10440829;28;20225;-75
2024/02/13 21:06:41;;;;;;;0.50;0.50;;;7.30;97.50;;;;;;10440200;28;20633;-75
2024/02/13 21:11:45;;;;;;;0.50;0.50;;;;;;;;;;10441990;28;20240;-73
2024/02/13 21:16:47;;;;;;;0.60;0.60;;;7.20;97.10;;;;;;10445377;28;20264;-75
2024/02/13 21:27:11;;;;;;;0.70;0.70;;;7.10;97.80;;;;;;10449533;28;20710;-74
2024/02/13 21:32:14;;;;;;;0.40;0.40;;;7.00;97.80;;;;;;10449095;28;20201;-74
2024/02/13 21:37:16;;;;;;;0.50;0.50;;;7.10;97.80;;;;;;10448634;28;20632;-75
2024/02/13 21:42:20;;;;;;;0.50;0.50;;;7.00;97.90;;;;;;10449820;28;20232;-75
2024/02/13 21:47:22;;;;;;;0.50;0.50;;;7.10;98.00;;;;;;10442796;28;20233;-75
2024/02/13 21:52:25;;;;;;;0.40;0.40;;;7.10;98.00;;;;;;10449853;28;20197;-76
2024/02/13 21:57:28;;;;;;;0.43;0.43;;;7.00;98.10;;;;;;10449822;28;20255;-76
2024/02/13 22:02:31;;;;;;;0.50;0.50;;;7.00;98.10;;;;;;10448640;28;20225;-75
2024/02/13 22:07:33;;;;;;;0.30;0.30;;;7.00;98.10;;;;;;10448425;28;20217;-76
2024/02/13 22:12:37;;;;;;;0.40;0.40;;;6.90;98.20;;;;;;10434551;28;20708;-76
2024/02/13 22:17:40;;;;;;;0.60;0.60;;;6.90;98.20;;;;;;10450560;28;20279;-75
2024/02/13 22:22:43;;;;;;;0.40;0.40;;;6.90;98.10;;;;;;10450794;28;20213;-76
2024/02/13 22:27:46;;;;;;;0.50;0.50;;;6.80;98.20;;;;;;10450007;28;20221;-76
2024/02/13 22:32:49;;;;;;;0.50;0.50;;;6.80;98.30;;;;;;10432337;28;20198;-75
2024/02/13 22:37:53;;;;;;;0.60;0.60;;;6.70;98.30;;;;;;10444996;28;20764;-75
2024/02/13 22:42:56;;;;;;;0.47;0.47;;;6.70;98.50;;;;;;10443819;28;20225;-75
2024/02/13 22:48:00;;;;;;;0.50;0.50;;;6.60;98.20;;;;;;10450797;28;20233;-75
2024/02/13 22:53:03;;;;;;;0.50;0.50;;;6.50;98.40;;;;;;10435286;28;20201;-76
2024/02/13 22:58:06;;;;;;;0.60;0.60;;;6.50;98.40;;;;;;10442120;28;20288;-76
2024/02/13 23:03:09;;;;;;;0.60;0.60;;;6.40;98.50;;;;;;10434960;28;20690;-75
2024/02/13 23:08:11;;;;;;;0.60;0.60;;;6.40;98.50;;;;;;10442800;28;20225;-75
2024/02/13 23:13:16;;;;;;;0.60;0.60;;;6.40;98.60;;;;;;10443513;28;20251;-75
2024/02/13 23:18:19;;;;;;;0.60;0.60;;;6.40;98.40;;;;;;10435789;28;20279;-75
2024/02/13 23:23:21;;;;;;;0.70;0.70;;;6.30;98.50;;;;;;10441196;28;20531;-73
2024/02/13 23:28:25;;;;;;;0.70;0.70;;;6.30;98.70;;;;;;10443319;28;20194;-75
2024/02/13 23:33:27;;;;;;;0.50;0.50;;;6.30;98.60;;;;;;10438462;28;20194;-75
2024/02/13 23:38:30;;;;;;;0.60;0.60;;;6.30;98.80;;;;;;10441398;28;20268;-75
2024/02/13 23:43:33;;;;;;;0.63;0.63;;;6.30;98.50;;;;;;10443760;28;20279;-75
2024/02/13 23:48:36;;;;;;;0.80;0.80;;;6.30;98.50;;;;;;10427624;28;20661;-74
2024/02/13 23:53:38;;;;;;;0.70;0.70;;;6.20;98.50;;;;;;10444184;28;20201;-75
2024/02/13 23:58:42;;;;;;;0.70;0.70;;;6.20;98.50;;;;;;10444067;28;20205;-75
